Honaunau, HI (96726)

9:49 AM HST on July 30, 2015 (GMT -1000)
KEE KEE st Neighborhood | | Change Station
CLOSE
Current Station
Personal Weather Station
Location: Kealakekua, HI
Elevation: 1388 ft
Nearby Weather Stations

Elev 1388 ft 19.51 °N, 155.93 °W | Updated 14 seconds ago

Clear
Clear
80.1 °F
Feels Like 84 °F
N
2.5
Wind Variable Wind from SSW
Gusts 4.9 mph

Today
High -- | Low -- °F
--% Chance of Precip.
Yesterday
High -- | Low -- °F
Precip. -- in
5:59 AM 7:00 PM
Waxing Gibbous, 99% visible
Pressure 29.92 in
Visibility 10.0 miles
Clouds Clear
Heat Index 84 °F
Dew Point 71 °F
Humidity 74%
Rainfall 0.24 in
Snow Depth Not available.
UV 4.0 out of 12
Pollen Not available.
Air Quality Not available.
Flu Activity Not available.
METAR PHKO 301853Z 18010KT 10SM CLR 30/22 A2992 RMK AO2 SLP132 T03000217

More Conditions Fewer Conditions

Pressure 29.92 in
Visibility 10.0 miles
Clouds Clear
Heat Index 84 °F
Dew Point 71 °F
Humidity 74%
Rainfall 0.24 in
Snow Depth Not available.
UV 4.0 out of 12
Pollen Not available.
Air Quality Not available.
Flu Activity Not available.
METAR PHKO 301853Z 18010KT 10SM CLR 30/22 A2992 RMK AO2 SLP132 T03000217

More Conditions Fewer Conditions

10-Day Weather Forecast

×

Almanac

Astronomy

Jul. 30, 2015 Rise Set
Actual Time
Civil Twilight
Nautical Twilight
Astronomical Twilight
Moon
Length of Visible Light
Length of Day
Tomorrow will be .
, % of the Moon is Illuminated

Today's Extremes

State Highs State Lows

Community

WunderPhotos

Upload Photos

1,842,486 photos uploaded!

WunderBlogs® & News

Nearby

Air Quality

  Air Quality AQ Index Pollutant
Not available.

Snow Depth

Station Depth Elevation

Earthquake Activity

City Distance Mag. Time & Date
Minimum magnitude displayed is 2.5.

Coastal Water Temperatures

Place Temperature

Stations

Nearby Weather Stations

Station Location Temp. Windchill Dew Point Humidity Wind Precip. Elev Updated Type